createdAt,value
2018-11-14T00:02:02.729Z,4.63
2018-11-14T00:04:30.970Z,4.60
2018-11-14T00:06:59.233Z,5.37
2018-11-14T00:09:27.524Z,4.73
2018-11-14T00:11:55.812Z,6.30
2018-11-14T00:14:24.084Z,5.40
2018-11-14T00:16:52.339Z,5.20
2018-11-14T00:19:20.652Z,5.87
2018-11-14T00:21:48.829Z,5.70
2018-11-14T00:24:17.110Z,6.53
2018-11-14T00:26:45.421Z,6.80
2018-11-14T00:29:13.614Z,5.90
2018-11-14T00:31:41.827Z,6.93
2018-11-14T00:34:10.068Z,7.20
2018-11-14T00:36:38.302Z,6.73
2018-11-14T00:39:08.277Z,7.90
2018-11-14T00:41:36.616Z,8.50
2018-11-14T00:44:05.701Z,8.00
2018-11-14T00:46:33.980Z,6.90
2018-11-14T00:49:02.236Z,8.37
2018-11-14T00:51:30.765Z,7.70
2018-11-14T00:53:59.048Z,8.23
2018-11-14T00:56:27.328Z,8.17
2018-11-14T00:58:55.900Z,8.10
2018-11-14T01:01:24.252Z,7.77
2018-11-14T01:03:52.475Z,7.80
2018-11-14T01:06:20.692Z,7.20
2018-11-14T01:08:48.921Z,7.63
2018-11-14T01:11:17.192Z,8.50
2018-11-14T01:13:45.444Z,7.97
2018-11-14T01:16:13.708Z,8.17
2018-11-14T01:18:41.908Z,8.70
2018-11-14T01:21:10.146Z,8.90
2018-11-14T01:23:38.360Z,9.53
2018-11-14T01:26:06.638Z,8.73
2018-11-14T01:28:34.845Z,9.10
2018-11-14T01:31:03.081Z,8.83
2018-11-14T01:33:31.319Z,10.00
2018-11-14T01:35:59.564Z,9.07
2018-11-14T01:38:27.833Z,9.97
2018-11-14T01:40:56.049Z,9.80
2018-11-14T01:43:24.713Z,9.57
2018-11-14T01:45:52.952Z,8.93
2018-11-14T01:48:21.202Z,10.00
2018-11-14T01:50:49.453Z,9.70
2018-11-14T01:53:17.708Z,10.37
2018-11-14T01:55:45.936Z,10.53
2018-11-14T01:58:14.180Z,9.40
2018-11-14T02:00:42.416Z,10.30
2018-11-14T02:03:10.667Z,9.33
2018-11-14T02:05:38.875Z,10.10
2018-11-14T02:08:07.109Z,11.27
2018-11-14T02:10:35.368Z,11.27
2018-11-14T02:13:03.628Z,11.33
2018-11-14T02:15:31.889Z,10.67
2018-11-14T02:18:00.133Z,10.70
2018-11-14T02:20:28.359Z,12.03
2018-11-14T02:22:56.609Z,12.23
2018-11-14T02:25:24.844Z,12.23
2018-11-14T02:27:53.121Z,12.80
2018-11-14T02:30:22.592Z,12.07
2018-11-14T02:32:50.850Z,12.03
2018-11-14T02:35:19.104Z,13.43
2018-11-14T02:37:47.829Z,14.43
2018-11-14T02:40:17.207Z,14.23
2018-11-14T02:42:46.260Z,14.37
2018-11-14T02:45:14.909Z,14.13
2018-11-14T02:47:43.177Z,14.57
2018-11-14T02:50:12.983Z,14.30
2018-11-14T02:52:41.252Z,15.13
2018-11-14T02:55:10.773Z,15.73
2018-11-14T02:57:39.040Z,16.03
2018-11-14T03:00:10.157Z,15.87
2018-11-14T03:02:38.401Z,16.97
2018-11-14T03:05:06.894Z,16.33
2018-11-14T03:07:35.188Z,16.17
2018-11-14T03:10:04.686Z,16.67
2018-11-14T03:12:33.015Z,17.37
2018-11-14T03:15:01.261Z,18.00
2018-11-14T03:17:29.501Z,16.80
2018-11-14T03:19:57.748Z,17.67
2018-11-14T03:22:26.003Z,17.67
2018-11-14T03:24:54.237Z,16.73
2018-11-14T03:27:22.472Z,18.50
2018-11-14T03:29:50.721Z,18.33
2018-11-14T03:32:18.971Z,19.40
2018-11-14T03:34:47.227Z,18.53
2018-11-14T03:37:15.503Z,20.30
2018-11-14T03:39:44.405Z,18.77
2018-11-14T03:42:12.644Z,18.30
2018-11-14T03:44:40.923Z,18.53
2018-11-14T03:47:09.168Z,19.90
2018-11-14T03:49:37.473Z,18.80
2018-11-14T03:52:06.539Z,19.13
2018-11-14T03:54:34.771Z,20.37
2018-11-14T03:57:03.060Z,20.03
2018-11-14T03:59:31.309Z,18.43
2018-11-14T04:01:59.543Z,20.10
2018-11-14T04:04:27.805Z,19.03
2018-11-14T04:06:56.052Z,21.03
2018-11-14T04:09:24.358Z,20.50
2018-11-14T04:11:52.595Z,21.63
2018-11-14T04:14:20.836Z,20.13
2018-11-14T04:16:49.075Z,21.07
2018-11-14T04:19:17.371Z,21.50
2018-11-14T04:21:45.601Z,20.80
2018-11-14T04:24:13.820Z,20.57
2018-11-14T04:26:42.071Z,19.87
2018-11-14T04:29:16.760Z,21.10
2018-11-14T04:31:45.016Z,19.27
2018-11-14T04:34:13.288Z,21.48
2018-11-14T04:36:41.580Z,20.73
2018-11-14T04:39:11.071Z,21.87
2018-11-14T04:41:39.458Z,21.57
2018-11-14T04:44:08.077Z,22.70
2018-11-14T04:46:36.340Z,20.20
2018-11-14T04:49:04.731Z,22.80
2018-11-14T04:51:33.136Z,22.73
2018-11-14T04:54:02.051Z,23.97
2018-11-14T04:56:30.307Z,23.67
2018-11-14T04:58:58.536Z,24.00
2018-11-14T05:01:26.798Z,23.00
2018-11-14T05:03:55.008Z,26.50
2018-11-14T05:06:23.284Z,24.60
2018-11-14T05:08:51.520Z,24.70
2018-11-14T05:11:19.779Z,26.27
2018-11-14T05:13:48.002Z,26.73
2018-11-14T05:16:16.243Z,25.77
2018-11-14T05:18:45.388Z,27.83
2018-11-14T05:21:13.621Z,25.70
2018-11-14T05:23:41.883Z,28.17
2018-11-14T05:26:16.741Z,27.57
2018-11-14T05:28:44.988Z,29.90
2018-11-14T05:31:13.222Z,30.50
2018-11-14T05:33:41.479Z,29.47
2018-11-14T05:36:09.867Z,28.47
2018-11-14T05:38:38.115Z,32.03
2018-11-14T05:41:06.382Z,33.13
2018-11-14T05:43:34.632Z,33.20
2018-11-14T05:46:02.991Z,29.30
2018-11-14T05:48:31.239Z,31.33
2018-11-14T05:51:00.049Z,30.90
2018-11-14T05:53:28.330Z,36.83
2018-11-14T05:55:56.601Z,34.90
2018-11-14T05:58:24.892Z,35.20
2018-11-14T06:00:53.156Z,35.77
2018-11-14T06:03:21.435Z,38.13
2018-11-14T06:05:49.709Z,34.33
2018-11-14T06:08:17.962Z,33.00
2018-11-14T06:10:46.204Z,38.10
2018-11-14T06:13:15.080Z,34.70
2018-11-14T06:15:43.311Z,35.43
2018-11-14T06:18:11.516Z,37.03
2018-11-14T06:20:39.765Z,40.10
2018-11-14T06:23:08.050Z,33.43
2018-11-14T06:25:37.438Z,39.03
2018-11-14T06:28:07.168Z,37.80
2018-11-14T06:30:36.165Z,37.07
2018-11-14T06:33:05.484Z,34.00
2018-11-14T06:35:33.769Z,36.87
2018-11-14T06:38:02.086Z,35.93
2018-11-14T06:40:30.564Z,38.60
2018-11-14T06:42:58.816Z,37.77
2018-11-14T06:45:28.377Z,39.77
2018-11-14T06:47:57.792Z,38.03
2018-11-14T06:50:26.094Z,38.27
2018-11-14T06:52:55.944Z,37.47
2018-11-14T06:55:24.192Z,36.87
2018-11-14T06:57:52.459Z,38.27
2018-11-14T07:00:26.002Z,38.13
2018-11-14T07:02:55.008Z,36.03
2018-11-14T07:05:23.312Z,38.33
2018-11-14T07:07:51.487Z,37.47
2018-11-14T07:10:21.449Z,36.20
2018-11-14T07:12:49.665Z,35.97
2018-11-14T07:15:20.001Z,37.63
2018-11-14T07:17:49.166Z,39.90
2018-11-14T07:20:21.897Z,35.90
2018-11-14T07:22:50.151Z,39.53
2018-11-14T07:25:18.409Z,40.90
2018-11-14T07:27:46.809Z,36.80
2018-11-14T07:30:16.968Z,39.10
2018-11-14T07:32:46.568Z,36.90
2018-11-14T07:35:15.567Z,36.23
2018-11-14T07:37:51.735Z,37.70
2018-11-14T07:40:19.969Z,39.40
2018-11-14T07:42:48.168Z,37.20
2018-11-14T07:45:16.725Z,39.70
2018-11-14T07:47:44.940Z,35.90
2018-11-14T07:50:15.232Z,37.87
2018-11-14T07:52:44.284Z,35.50
2018-11-14T07:55:12.917Z,36.73
2018-11-14T07:57:41.203Z,35.53
2018-11-14T08:00:16.095Z,35.50
2018-11-14T08:02:44.439Z,36.13
2018-11-14T08:05:12.874Z,36.63
2018-11-14T08:07:41.187Z,36.40
2018-11-14T08:10:11.066Z,39.37
2018-11-14T08:12:39.284Z,35.93
2018-11-14T08:15:08.584Z,37.57
2018-11-14T08:17:37.080Z,36.67
2018-11-14T08:20:08.444Z,37.03
2018-11-14T08:22:36.668Z,38.00
2018-11-14T08:25:05.157Z,36.37
2018-11-14T08:27:33.444Z,36.80
2018-11-14T08:30:01.732Z,38.00
2018-11-14T08:32:30.001Z,35.37
2018-11-14T08:34:58.272Z,36.23
2018-11-14T08:37:26.630Z,35.23
2018-11-14T08:39:54.905Z,33.63
2018-11-14T08:42:23.172Z,40.20
2018-11-14T08:44:51.988Z,39.57
2018-11-14T08:47:20.244Z,37.00
2018-11-14T08:49:48.511Z,35.13
2018-11-14T08:52:16.783Z,36.00
2018-11-14T08:54:45.032Z,37.53
2018-11-14T08:57:13.299Z,36.80
2018-11-14T08:59:41.704Z,35.27
2018-11-14T09:02:10.068Z,36.77
2018-11-14T09:04:38.339Z,37.10
2018-11-14T09:07:06.597Z,36.97
2018-11-14T09:09:34.816Z,33.70
2018-11-14T09:12:03.074Z,40.30
2018-11-14T09:14:31.420Z,39.43
2018-11-14T09:16:59.617Z,36.93
2018-11-14T09:19:27.944Z,40.87
2018-11-14T09:21:56.245Z,36.60
2018-11-14T09:24:24.488Z,36.83
2018-11-14T09:26:52.748Z,36.43
2018-11-14T09:29:20.987Z,38.93
2018-11-14T09:31:49.230Z,35.63
2018-11-14T09:34:17.496Z,38.80
2018-11-14T09:36:45.736Z,36.53
2018-11-14T09:39:14.011Z,37.47
2018-11-14T09:41:42.288Z,36.33
2018-11-14T09:44:10.505Z,33.77
2018-11-14T09:46:38.789Z,32.50
2018-11-14T09:49:07.052Z,32.10
2018-11-14T09:51:35.628Z,31.20
2018-11-14T09:54:04.085Z,31.73
2018-11-14T09:56:32.416Z,31.13
2018-11-14T09:59:00.785Z,30.33
2018-11-14T10:01:29.039Z,30.07
2018-11-14T10:03:57.337Z,30.03
2018-11-14T10:06:25.640Z,30.57
2018-11-14T10:08:54.831Z,29.60
2018-11-14T10:11:23.058Z,32.00
2018-11-14T10:13:51.305Z,32.40
2018-11-14T10:16:19.659Z,31.33
2018-11-14T10:18:47.897Z,32.67
2018-11-14T10:21:16.212Z,29.97
2018-11-14T10:23:44.395Z,30.03
2018-11-14T10:26:13.084Z,30.47
2018-11-14T10:28:41.344Z,31.00
2018-11-14T10:31:09.611Z,31.67
2018-11-14T10:33:37.905Z,32.07
2018-11-14T10:36:06.150Z,32.40
2018-11-14T10:38:34.419Z,32.23
2018-11-14T10:41:02.673Z,29.63
2018-11-14T10:43:30.891Z,29.00
2018-11-14T10:45:59.128Z,28.20
2018-11-14T10:48:27.412Z,27.30
2018-11-14T10:50:55.860Z,26.90
2018-11-14T10:53:24.028Z,26.80
2018-11-14T10:55:52.302Z,28.77
2018-11-14T10:58:20.591Z,28.40
2018-11-14T11:00:53.100Z,29.07
2018-11-14T11:03:26.764Z,28.67
2018-11-14T11:06:00.351Z,28.50
2018-11-14T11:08:34.039Z,28.07
2018-11-14T11:11:07.861Z,30.17
2018-11-14T11:13:41.588Z,29.30
2018-11-14T11:16:15.308Z,28.97
2018-11-14T11:18:50.086Z,27.60
2018-11-14T11:21:18.317Z,27.47
2018-11-14T11:23:46.600Z,27.77
2018-11-14T11:26:14.894Z,28.37
2018-11-14T11:28:43.842Z,29.53
2018-11-14T11:31:12.064Z,27.33
2018-11-14T11:33:40.296Z,26.93
2018-11-14T11:36:08.563Z,29.97
2018-11-14T11:38:36.804Z,28.73
2018-11-14T11:41:05.187Z,30.87
2018-11-14T11:43:33.443Z,29.27
2018-11-14T11:46:02.072Z,27.43
2018-11-14T11:48:30.321Z,29.67
2018-11-14T11:50:59.190Z,28.20
2018-11-14T11:53:27.516Z,27.53
2018-11-14T11:55:55.782Z,29.77
2018-11-14T11:58:24.050Z,30.00
2018-11-14T12:00:52.330Z,28.50
2018-11-14T12:03:20.524Z,28.37
2018-11-14T12:05:48.823Z,30.67
2018-11-14T12:08:17.061Z,28.37
2018-11-14T12:10:45.333Z,28.97
2018-11-14T12:13:13.626Z,29.93
2018-11-14T12:15:41.851Z,30.73
2018-11-14T12:18:10.056Z,28.93
2018-11-14T12:20:38.319Z,31.73
2018-11-14T12:23:06.675Z,29.97
2018-11-14T12:25:34.932Z,32.73
2018-11-14T12:28:03.303Z,32.60
2018-11-14T12:30:31.632Z,31.77
2018-11-14T12:32:59.842Z,31.37
2018-11-14T12:35:28.274Z,33.03
2018-11-14T12:37:56.548Z,31.57
2018-11-14T12:40:24.856Z,33.47
2018-11-14T12:42:53.256Z,33.80
2018-11-14T12:45:21.488Z,33.13
2018-11-14T12:47:49.765Z,32.83
2018-11-14T12:50:18.024Z,35.83
2018-11-14T12:52:46.314Z,35.10
2018-11-14T12:55:17.649Z,33.30
2018-11-14T12:57:45.928Z,34.43
2018-11-14T13:00:15.461Z,35.60
2018-11-14T13:02:43.747Z,35.80
2018-11-14T13:05:13.176Z,35.90
2018-11-14T13:07:41.644Z,36.47
2018-11-14T13:10:11.239Z,38.03
2018-11-14T13:12:39.499Z,36.27
2018-11-14T13:15:08.943Z,38.83
2018-11-14T13:17:37.187Z,37.93
2018-11-14T13:20:07.902Z,38.70
2018-11-14T13:22:36.166Z,39.10
2018-11-14T13:25:05.468Z,39.53
2018-11-14T13:27:33.758Z,37.97
2018-11-14T13:30:02.029Z,36.37
2018-11-14T13:32:30.293Z,36.80
2018-11-14T13:34:58.608Z,38.57
2018-11-14T13:37:27.124Z,37.00
2018-11-14T13:39:55.432Z,39.00
2018-11-14T13:42:23.716Z,38.27
2018-11-14T13:44:51.985Z,38.63
2018-11-14T13:47:20.255Z,38.20
2018-11-14T13:49:48.702Z,38.50
2018-11-14T13:52:16.849Z,38.53
2018-11-14T13:54:45.124Z,37.47
2018-11-14T13:57:13.412Z,36.60
2018-11-14T13:59:41.652Z,36.50
2018-11-14T14:02:09.896Z,36.10
2018-11-14T14:04:38.157Z,36.10
2018-11-14T14:07:06.471Z,35.20
2018-11-14T14:09:34.987Z,34.73
2018-11-14T14:12:03.208Z,34.47
2018-11-14T14:14:31.497Z,37.87
2018-11-14T14:16:59.732Z,37.00
2018-11-14T14:19:28.016Z,35.80
2018-11-14T14:21:56.280Z,35.93
2018-11-14T14:24:24.583Z,35.00
2018-11-14T14:26:52.855Z,33.87
2018-11-14T14:29:22.049Z,35.57
2018-11-14T14:31:50.344Z,33.57
2018-11-14T14:34:18.639Z,33.60
2018-11-14T14:36:46.940Z,33.53
2018-11-14T14:39:15.214Z,33.37
2018-11-14T14:41:43.498Z,32.77
2018-11-14T14:44:11.788Z,32.20
2018-11-14T14:46:40.380Z,32.33
2018-11-14T14:49:09.067Z,31.00
2018-11-14T14:51:37.326Z,32.07
2018-11-14T14:54:05.592Z,29.23
2018-11-14T14:56:33.949Z,30.67
2018-11-14T14:59:02.126Z,29.53
2018-11-14T15:01:30.400Z,30.40
2018-11-14T15:03:58.698Z,28.10
2018-11-14T15:06:26.976Z,25.57
2018-11-14T15:08:55.247Z,26.00
2018-11-14T15:11:23.498Z,24.27
2018-11-14T15:13:51.773Z,24.47
2018-11-14T15:16:20.216Z,23.30
2018-11-14T15:18:48.537Z,22.90
2018-11-14T15:21:16.778Z,22.00
2018-11-14T15:23:45.041Z,21.30
2018-11-14T15:26:13.329Z,19.53
2018-11-14T15:28:41.647Z,19.30
2018-11-14T15:31:09.935Z,19.30
2018-11-14T15:33:38.232Z,19.70
2018-11-14T15:36:06.667Z,19.50
2018-11-14T15:38:34.881Z,19.33
2018-11-14T15:41:03.176Z,19.77
2018-11-14T15:43:31.489Z,18.73
2018-11-14T15:45:59.743Z,17.50
2018-11-14T15:48:28.028Z,18.37
2018-11-14T15:50:56.329Z,18.00
2018-11-14T15:53:24.600Z,17.43
2018-11-14T15:55:52.912Z,16.97
2018-11-14T15:58:21.233Z,16.97
2018-11-14T16:00:49.542Z,16.00
2018-11-14T16:03:17.911Z,15.67
2018-11-14T16:05:46.336Z,16.97
2018-11-14T16:08:14.564Z,16.43
2018-11-14T16:10:42.858Z,15.60
2018-11-14T16:13:11.177Z,16.17
2018-11-14T16:15:39.717Z,16.20
2018-11-14T16:18:08.062Z,14.97
2018-11-14T16:20:36.436Z,16.87
2018-11-14T16:23:04.760Z,16.70
2018-11-14T16:25:33.076Z,17.30
2018-11-14T16:28:02.032Z,15.47
2018-11-14T16:30:38.193Z,15.40
2018-11-14T16:33:07.789Z,15.80
2018-11-14T16:35:36.105Z,16.00
2018-11-14T16:38:04.584Z,15.13
2018-11-14T16:40:33.969Z,14.73
2018-11-14T16:43:03.788Z,16.07
2018-11-14T16:45:32.153Z,16.60
2018-11-14T16:48:00.577Z,16.67
2018-11-14T16:50:30.422Z,14.37
2018-11-14T16:52:58.817Z,15.47
2018-11-14T16:55:28.582Z,15.93
2018-11-14T16:57:57.372Z,14.87
2018-11-14T17:00:28.245Z,14.50
2018-11-14T17:02:56.587Z,14.83
2018-11-14T17:05:25.900Z,15.20
2018-11-14T17:07:55.341Z,14.30
2018-11-14T17:10:24.788Z,14.33
2018-11-14T17:12:54.528Z,15.33
2018-11-14T17:15:23.965Z,14.80
2018-11-14T17:17:52.397Z,14.03
2018-11-14T17:20:22.309Z,14.17
2018-11-14T17:22:52.307Z,14.53
2018-11-14T17:25:21.687Z,14.20
2018-11-14T17:27:50.113Z,13.10
2018-11-14T17:30:20.421Z,13.10
2018-11-14T17:32:48.966Z,13.57
2018-11-14T17:35:18.202Z,12.63
2018-11-14T17:37:47.939Z,12.73
2018-11-14T17:40:21.413Z,12.73
2018-11-14T17:42:50.747Z,12.63
2018-11-14T17:45:20.932Z,12.43
2018-11-14T17:47:50.647Z,12.60
2018-11-14T17:50:21.438Z,12.90
2018-11-14T17:52:50.725Z,12.73
2018-11-14T17:55:20.220Z,12.30
2018-11-14T17:57:48.562Z,12.33
2018-11-14T18:00:19.593Z,12.97
2018-11-14T18:02:48.077Z,12.00
2018-11-14T18:05:17.576Z,12.37
2018-11-14T18:07:46.615Z,12.23
2018-11-14T18:10:16.543Z,13.17
2018-11-14T18:12:47.184Z,12.43
2018-11-14T18:15:15.553Z,12.03
2018-11-14T18:17:44.758Z,12.37
2018-11-14T18:20:16.756Z,11.43
2018-11-14T18:22:45.848Z,11.63
2018-11-14T18:25:14.852Z,11.50
2018-11-14T18:27:43.510Z,11.70
2018-11-14T18:30:15.847Z,11.43
2018-11-14T18:32:44.275Z,11.07
2018-11-14T18:35:14.437Z,11.67
2018-11-14T18:37:44.670Z,11.93
2018-11-14T18:40:15.024Z,11.47
2018-11-14T18:42:43.656Z,11.00
2018-11-14T18:45:22.357Z,10.70
2018-11-14T18:47:50.771Z,12.67
2018-11-14T18:50:19.804Z,11.40
2018-11-14T18:52:48.610Z,10.17
2018-11-14T18:55:18.464Z,10.37
2018-11-14T18:57:47.006Z,11.37
2018-11-14T19:00:18.396Z,10.17
2018-11-14T19:02:46.743Z,11.03
2018-11-14T19:05:15.813Z,10.47
2018-11-14T19:07:46.530Z,10.80
2018-11-14T19:10:17.070Z,12.37
2018-11-14T19:12:46.139Z,11.77
2018-11-14T19:15:16.435Z,12.37
2018-11-14T19:17:45.272Z,12.43
2018-11-14T19:20:14.744Z,12.60
2018-11-14T19:22:43.441Z,11.70
2018-11-14T19:25:16.027Z,11.80
2018-11-14T19:27:45.928Z,11.27
2018-11-14T19:30:16.746Z,11.37
2018-11-14T19:32:47.085Z,10.90
2018-11-14T19:35:15.861Z,11.20
2018-11-14T19:37:45.375Z,11.20
2018-11-14T19:40:15.414Z,10.63
2018-11-14T19:42:44.410Z,11.80
2018-11-14T19:45:15.744Z,11.03
2018-11-14T19:47:45.094Z,11.70
2018-11-14T19:50:17.360Z,11.43
2018-11-14T19:52:46.139Z,10.60
2018-11-14T19:55:15.829Z,10.90
2018-11-14T19:57:45.865Z,11.13
2018-11-14T20:00:19.867Z,10.63
2018-11-14T20:02:49.262Z,12.23
2018-11-14T20:05:18.739Z,11.60
2018-11-14T20:07:47.100Z,10.87
2018-11-14T20:10:19.406Z,10.90
2018-11-14T20:12:48.293Z,11.27
2018-11-14T20:15:18.982Z,12.90
2018-11-14T20:17:48.039Z,15.60
2018-11-14T20:20:18.178Z,16.07
2018-11-14T20:22:46.707Z,17.37
2018-11-14T20:25:15.219Z,12.30
2018-11-14T20:27:43.874Z,12.53
2018-11-14T20:30:15.311Z,12.40
2018-11-14T20:32:45.268Z,11.50
2018-11-14T20:35:17.276Z,10.33
2018-11-14T20:37:50.359Z,10.47
2018-11-14T20:40:20.444Z,10.20
2018-11-14T20:42:51.325Z,9.60
2018-11-14T20:45:27.973Z,10.32
2018-11-14T20:47:57.625Z,9.53
2018-11-14T20:50:26.658Z,9.97
2018-11-14T20:52:57.726Z,10.87
2018-11-14T20:55:26.029Z,10.70
2018-11-14T20:57:54.534Z,11.00
2018-11-14T21:00:28.330Z,11.23
2018-11-14T21:02:56.906Z,11.30
2018-11-14T21:05:25.829Z,10.63
2018-11-14T21:07:54.284Z,11.17
2018-11-14T21:10:27.344Z,10.70
2018-11-14T21:12:56.371Z,10.57
2018-11-14T21:15:29.438Z,10.67
2018-11-14T21:17:58.784Z,10.23
2018-11-14T21:20:27.289Z,9.60
2018-11-14T21:22:55.775Z,9.40
2018-11-14T21:25:24.823Z,10.13
2018-11-14T21:27:53.821Z,10.40
2018-11-14T21:30:23.880Z,10.00
2018-11-14T21:32:52.218Z,10.27
2018-11-14T21:35:22.932Z,10.00
2018-11-14T21:37:52.697Z,10.60
2018-11-14T21:40:21.673Z,9.73
2018-11-14T21:42:49.985Z,9.07
2018-11-14T21:45:19.635Z,9.43
2018-11-14T21:47:53.425Z,8.30
2018-11-14T21:50:22.836Z,8.43
2018-11-14T21:52:51.114Z,8.28
2018-11-14T21:55:19.385Z,9.10
2018-11-14T21:57:48.018Z,8.50
2018-11-14T22:00:19.074Z,9.30
2018-11-14T22:02:48.688Z,7.93
2018-11-14T22:05:17.020Z,8.80
2018-11-14T22:07:45.321Z,8.70
2018-11-14T22:10:16.337Z,9.50
2018-11-14T22:12:45.072Z,9.33
2018-11-14T22:15:14.174Z,8.93
2018-11-14T22:17:42.481Z,9.67
2018-11-14T22:20:13.720Z,9.50
2018-11-14T22:22:43.693Z,9.23
2018-11-14T22:25:13.165Z,9.37
2018-11-14T22:27:41.455Z,9.23
2018-11-14T22:30:17.499Z,9.33
2018-11-14T22:32:45.808Z,8.57
2018-11-14T22:35:15.484Z,8.70
2018-11-14T22:37:43.954Z,8.83
2018-11-14T22:40:14.237Z,8.20
2018-11-14T22:42:42.859Z,8.50
2018-11-14T22:45:13.503Z,8.23
2018-11-14T22:47:42.364Z,9.87
2018-11-14T22:50:12.065Z,7.93
2018-11-14T22:52:41.323Z,8.27
2018-11-14T22:55:10.640Z,8.47
2018-11-14T22:57:38.918Z,8.47
2018-11-14T23:00:26.940Z,8.37
2018-11-14T23:02:56.466Z,8.83
2018-11-14T23:05:24.703Z,7.90
2018-11-14T23:07:53.859Z,8.93
2018-11-14T23:10:22.836Z,8.77
2018-11-14T23:12:51.309Z,8.57
2018-11-14T23:15:20.161Z,8.30
2018-11-14T23:17:48.496Z,9.87
2018-11-14T23:20:17.227Z,9.00
2018-11-14T23:22:46.118Z,8.97
2018-11-14T23:25:14.889Z,9.10
2018-11-14T23:27:44.210Z,7.47
2018-11-14T23:30:13.434Z,7.97
2018-11-14T23:32:43.029Z,7.97
2018-11-14T23:35:18.345Z,7.10
2018-11-14T23:37:48.902Z,7.73
2018-11-14T23:40:17.118Z,7.67
2018-11-14T23:42:45.318Z,6.93
2018-11-14T23:45:14.537Z,7.73
2018-11-14T23:47:43.600Z,7.07
2018-11-14T23:50:15.391Z,7.33
2018-11-14T23:52:44.965Z,7.33
2018-11-14T23:55:13.473Z,7.23
2018-11-14T23:57:41.677Z,7.70
